sensor_id;sensor_type;location;lat;lon;timestamp;P1;durP1;ratioP1;P2;durP2;ratioP2
70213;SDS011;60138;55.808;37.078;2023-12-20T00:02:21;5.70;;;4.40;;
70213;SDS011;60138;55.808;37.078;2023-12-20T00:04:46;4.70;;;3.75;;
70213;SDS011;60138;55.808;37.078;2023-12-20T00:07:12;5.13;;;3.73;;
70213;SDS011;60138;55.808;37.078;2023-12-20T00:09:38;6.45;;;3.92;;
70213;SDS011;60138;55.808;37.078;2023-12-20T00:12:04;4.77;;;4.27;;
70213;SDS011;60138;55.808;37.078;2023-12-20T00:14:30;6.30;;;3.28;;
70213;SDS011;60138;55.808;37.078;2023-12-20T00:16:56;4.72;;;4.13;;
70213;SDS011;60138;55.808;37.078;2023-12-20T00:19:21;4.17;;;3.60;;
70213;SDS011;60138;55.808;37.078;2023-12-20T00:21:47;4.60;;;3.60;;
70213;SDS011;60138;55.808;37.078;2023-12-20T00:24:13;4.80;;;3.67;;
70213;SDS011;60138;55.808;37.078;2023-12-20T00:26:39;4.18;;;3.58;;
70213;SDS011;60138;55.808;37.078;2023-12-20T00:29:04;4.27;;;3.67;;
70213;SDS011;60138;55.808;37.078;2023-12-20T00:31:30;3.70;;;3.30;;
70213;SDS011;60138;55.808;37.078;2023-12-20T00:33:56;4.63;;;3.33;;
70213;SDS011;60138;55.808;37.078;2023-12-20T00:36:22;5.35;;;4.05;;
70213;SDS011;60138;55.808;37.078;2023-12-20T00:38:47;3.83;;;3.30;;
70213;SDS011;60138;55.808;37.078;2023-12-20T00:41:13;5.10;;;4.07;;
70213;SDS011;60138;55.808;37.078;2023-12-20T00:43:39;6.90;;;3.85;;
70213;SDS011;60138;55.808;37.078;2023-12-20T00:46:05;4.60;;;3.87;;
70213;SDS011;60138;55.808;37.078;2023-12-20T00:48:30;4.85;;;4.03;;
70213;SDS011;60138;55.808;37.078;2023-12-20T00:50:57;5.30;;;3.80;;
70213;SDS011;60138;55.808;37.078;2023-12-20T00:53:23;7.05;;;4.50;;
70213;SDS011;60138;55.808;37.078;2023-12-20T00:55:48;5.80;;;4.53;;
70213;SDS011;60138;55.808;37.078;2023-12-20T00:58:14;4.60;;;4.03;;
70213;SDS011;60138;55.808;37.078;2023-12-20T01:00:40;4.75;;;4.18;;
70213;SDS011;60138;55.808;37.078;2023-12-20T01:03:06;4.53;;;3.40;;
70213;SDS011;60138;55.808;37.078;2023-12-20T01:05:31;5.50;;;4.28;;
70213;SDS011;60138;55.808;37.078;2023-12-20T01:07:57;4.83;;;3.90;;
70213;SDS011;60138;55.808;37.078;2023-12-20T01:10:23;5.75;;;4.80;;
70213;SDS011;60138;55.808;37.078;2023-12-20T01:12:49;6.97;;;4.23;;
70213;SDS011;60138;55.808;37.078;2023-12-20T01:15:15;5.60;;;4.88;;
70213;SDS011;60138;55.808;37.078;2023-12-20T01:17:40;4.70;;;3.67;;
70213;SDS011;60138;55.808;37.078;2023-12-20T01:20:06;6.80;;;4.88;;
70213;SDS011;60138;55.808;37.078;2023-12-20T01:22:33;7.40;;;4.60;;
70213;SDS011;60138;55.808;37.078;2023-12-20T01:24:58;4.50;;;3.30;;
70213;SDS011;60138;55.808;37.078;2023-12-20T01:27:24;5.47;;;4.20;;
70213;SDS011;60138;55.808;37.078;2023-12-20T01:29:50;5.17;;;4.13;;
70213;SDS011;60138;55.808;37.078;2023-12-20T01:32:16;7.32;;;4.32;;
70213;SDS011;60138;55.808;37.078;2023-12-20T01:34:41;7.57;;;4.00;;
70213;SDS011;60138;55.808;37.078;2023-12-20T01:37:07;8.35;;;4.40;;
70213;SDS011;60138;55.808;37.078;2023-12-20T01:39:33;8.50;;;4.47;;
70213;SDS011;60138;55.808;37.078;2023-12-20T01:41:59;6.63;;;3.55;;
70213;SDS011;60138;55.808;37.078;2023-12-20T01:44:24;4.70;;;3.90;;
70213;SDS011;60138;55.808;37.078;2023-12-20T01:46:50;5.63;;;4.13;;
70213;SDS011;60138;55.808;37.078;2023-12-20T01:49:16;4.80;;;3.75;;
70213;SDS011;60138;55.808;37.078;2023-12-20T01:51:42;5.77;;;3.40;;
70213;SDS011;60138;55.808;37.078;2023-12-20T01:54:09;7.75;;;3.75;;
70213;SDS011;60138;55.808;37.078;2023-12-20T01:56:35;5.22;;;4.00;;
70213;SDS011;60138;55.808;37.078;2023-12-20T01:59:00;5.00;;;3.70;;
70213;SDS011;60138;55.808;37.078;2023-12-20T02:01:27;5.03;;;4.05;;
70213;SDS011;60138;55.808;37.078;2023-12-20T02:03:53;5.30;;;3.40;;
70213;SDS011;60138;55.808;37.078;2023-12-20T02:06:19;7.43;;;3.38;;
70213;SDS011;60138;55.808;37.078;2023-12-20T02:08:47;5.07;;;3.20;;
70213;SDS011;60138;55.808;37.078;2023-12-20T02:11:13;4.40;;;3.85;;
70213;SDS011;60138;55.808;37.078;2023-12-20T02:13:39;5.30;;;4.80;;
70213;SDS011;60138;55.808;37.078;2023-12-20T02:16:05;5.63;;;4.18;;
70213;SDS011;60138;55.808;37.078;2023-12-20T02:18:31;7.90;;;3.37;;
70213;SDS011;60138;55.808;37.078;2023-12-20T02:20:57;3.58;;;2.75;;
70213;SDS011;60138;55.808;37.078;2023-12-20T02:23:23;7.50;;;3.63;;
70213;SDS011;60138;55.808;37.078;2023-12-20T02:25:49;6.78;;;3.97;;
70213;SDS011;60138;55.808;37.078;2023-12-20T02:28:14;6.63;;;3.20;;
70213;SDS011;60138;55.808;37.078;2023-12-20T02:30:41;4.03;;;3.45;;
70213;SDS011;60138;55.808;37.078;2023-12-20T02:33:10;4.57;;;3.60;;
70213;SDS011;60138;55.808;37.078;2023-12-20T02:35:39;5.72;;;4.10;;
70213;SDS011;60138;55.808;37.078;2023-12-20T02:38:05;4.80;;;3.70;;
70213;SDS011;60138;55.808;37.078;2023-12-20T02:40:30;4.00;;;3.60;;
70213;SDS011;60138;55.808;37.078;2023-12-20T02:42:56;5.73;;;4.13;;
70213;SDS011;60138;55.808;37.078;2023-12-20T02:45:22;4.78;;;3.88;;
70213;SDS011;60138;55.808;37.078;2023-12-20T02:47:48;5.50;;;3.87;;
70213;SDS011;60138;55.808;37.078;2023-12-20T02:50:14;5.05;;;4.15;;
70213;SDS011;60138;55.808;37.078;2023-12-20T02:52:39;5.40;;;4.03;;
70213;SDS011;60138;55.808;37.078;2023-12-20T02:55:05;5.60;;;3.58;;
70213;SDS011;60138;55.808;37.078;2023-12-20T02:57:31;8.75;;;3.95;;
70213;SDS011;60138;55.808;37.078;2023-12-20T02:59:57;7.63;;;4.70;;
70213;SDS011;60138;55.808;37.078;2023-12-20T03:02:23;5.70;;;3.88;;
70213;SDS011;60138;55.808;37.078;2023-12-20T03:04:49;6.17;;;4.23;;
70213;SDS011;60138;55.808;37.078;2023-12-20T03:07:14;4.30;;;3.58;;
70213;SDS011;60138;55.808;37.078;2023-12-20T03:09:40;5.13;;;3.20;;
70213;SDS011;60138;55.808;37.078;2023-12-20T03:12:06;4.18;;;3.78;;
70213;SDS011;60138;55.808;37.078;2023-12-20T03:14:32;4.30;;;3.90;;
70213;SDS011;60138;55.808;37.078;2023-12-20T03:16:57;8.67;;;4.10;;
70213;SDS011;60138;55.808;37.078;2023-12-20T03:19:23;4.35;;;3.13;;
70213;SDS011;60138;55.808;37.078;2023-12-20T03:21:49;8.27;;;4.35;;
70213;SDS011;60138;55.808;37.078;2023-12-20T03:24:15;6.80;;;3.60;;
70213;SDS011;60138;55.808;37.078;2023-12-20T03:26:41;5.45;;;3.53;;
70213;SDS011;60138;55.808;37.078;2023-12-20T03:29:06;5.38;;;4.03;;
70213;SDS011;60138;55.808;37.078;2023-12-20T03:31:32;5.70;;;4.03;;
70213;SDS011;60138;55.808;37.078;2023-12-20T03:33:58;6.20;;;4.05;;
70213;SDS011;60138;55.808;37.078;2023-12-20T03:36:24;5.78;;;4.60;;
70213;SDS011;60138;55.808;37.078;2023-12-20T03:38:50;4.70;;;4.07;;
70213;SDS011;60138;55.808;37.078;2023-12-20T03:41:15;5.45;;;4.00;;
70213;SDS011;60138;55.808;37.078;2023-12-20T03:43:41;5.70;;;4.07;;
70213;SDS011;60138;55.808;37.078;2023-12-20T03:46:10;7.45;;;4.30;;
70213;SDS011;60138;55.808;37.078;2023-12-20T03:48:36;5.63;;;4.15;;
70213;SDS011;60138;55.808;37.078;2023-12-20T03:51:01;8.03;;;4.27;;
70213;SDS011;60138;55.808;37.078;2023-12-20T03:53:27;7.47;;;4.57;;
70213;SDS011;60138;55.808;37.078;2023-12-20T03:55:53;5.27;;;4.53;;
70213;SDS011;60138;55.808;37.078;2023-12-20T03:58:19;7.85;;;5.05;;
70213;SDS011;60138;55.808;37.078;2023-12-20T04:00:45;5.68;;;4.63;;
70213;SDS011;60138;55.808;37.078;2023-12-20T04:03:11;5.70;;;4.78;;
70213;SDS011;60138;55.808;37.078;2023-12-20T04:05:37;6.43;;;4.63;;
70213;SDS011;60138;55.808;37.078;2023-12-20T04:08:03;5.03;;;3.95;;
70213;SDS011;60138;55.808;37.078;2023-12-20T04:10:29;9.40;;;3.90;;
70213;SDS011;60138;55.808;37.078;2023-12-20T04:12:55;3.58;;;3.13;;
70213;SDS011;60138;55.808;37.078;2023-12-20T04:15:20;4.78;;;3.45;;
70213;SDS011;60138;55.808;37.078;2023-12-20T04:17:46;5.17;;;3.67;;
70213;SDS011;60138;55.808;37.078;2023-12-20T04:20:12;5.53;;;3.33;;
70213;SDS011;60138;55.808;37.078;2023-12-20T04:22:38;4.53;;;3.45;;
70213;SDS011;60138;55.808;37.078;2023-12-20T04:25:04;5.43;;;3.93;;
70213;SDS011;60138;55.808;37.078;2023-12-20T04:27:31;6.88;;;3.38;;
70213;SDS011;60138;55.808;37.078;2023-12-20T04:29:56;5.93;;;3.70;;
70213;SDS011;60138;55.808;37.078;2023-12-20T04:32:22;6.00;;;4.03;;
70213;SDS011;60138;55.808;37.078;2023-12-20T04:34:48;7.35;;;3.58;;
70213;SDS011;60138;55.808;37.078;2023-12-20T04:37:14;6.87;;;4.07;;
70213;SDS011;60138;55.808;37.078;2023-12-20T04:39:40;4.80;;;3.80;;
70213;SDS011;60138;55.808;37.078;2023-12-20T04:42:05;5.60;;;3.77;;
70213;SDS011;60138;55.808;37.078;2023-12-20T04:44:31;5.80;;;3.83;;
70213;SDS011;60138;55.808;37.078;2023-12-20T04:46:57;7.40;;;3.53;;
70213;SDS011;60138;55.808;37.078;2023-12-20T04:49:23;4.60;;;3.47;;
70213;SDS011;60138;55.808;37.078;2023-12-20T04:51:49;6.00;;;4.18;;
70213;SDS011;60138;55.808;37.078;2023-12-20T04:54:14;6.43;;;4.30;;
70213;SDS011;60138;55.808;37.078;2023-12-20T04:56:40;5.43;;;4.65;;
70213;SDS011;60138;55.808;37.078;2023-12-20T04:59:06;9.15;;;4.90;;
70213;SDS011;60138;55.808;37.078;2023-12-20T05:01:32;5.90;;;4.83;;
70213;SDS011;60138;55.808;37.078;2023-12-20T05:03:58;5.28;;;4.18;;
70213;SDS011;60138;55.808;37.078;2023-12-20T05:06:24;8.97;;;4.73;;
70213;SDS011;60138;55.808;37.078;2023-12-20T05:08:50;5.93;;;4.50;;
70213;SDS011;60138;55.808;37.078;2023-12-20T05:11:15;6.07;;;4.87;;
70213;SDS011;60138;55.808;37.078;2023-12-20T05:13:41;7.13;;;4.53;;
70213;SDS011;60138;55.808;37.078;2023-12-20T05:16:07;7.07;;;5.15;;
70213;SDS011;60138;55.808;37.078;2023-12-20T05:18:33;7.78;;;4.95;;
70213;SDS011;60138;55.808;37.078;2023-12-20T05:20:59;5.93;;;4.72;;
70213;SDS011;60138;55.808;37.078;2023-12-20T05:23:24;5.90;;;4.13;;
70213;SDS011;60138;55.808;37.078;2023-12-20T05:25:50;6.82;;;3.90;;
70213;SDS011;60138;55.808;37.078;2023-12-20T05:28:16;6.00;;;4.10;;
70213;SDS011;60138;55.808;37.078;2023-12-20T05:30:42;9.40;;;5.15;;
70213;SDS011;60138;55.808;37.078;2023-12-20T05:33:07;6.03;;;5.07;;
70213;SDS011;60138;55.808;37.078;2023-12-20T05:35:33;4.75;;;4.25;;
70213;SDS011;60138;55.808;37.078;2023-12-20T05:37:59;7.85;;;4.90;;
70213;SDS011;60138;55.808;37.078;2023-12-20T05:40:25;7.97;;;4.60;;
70213;SDS011;60138;55.808;37.078;2023-12-20T05:42:51;7.53;;;5.07;;
70213;SDS011;60138;55.808;37.078;2023-12-20T05:45:16;8.93;;;4.70;;
70213;SDS011;60138;55.808;37.078;2023-12-20T05:47:42;8.07;;;5.32;;
70213;SDS011;60138;55.808;37.078;2023-12-20T05:50:08;12.23;;;6.77;;
70213;SDS011;60138;55.808;37.078;2023-12-20T05:52:34;7.70;;;5.75;;
70213;SDS011;60138;55.808;37.078;2023-12-20T05:55:00;10.43;;;5.80;;
70213;SDS011;60138;55.808;37.078;2023-12-20T05:57:26;8.13;;;5.85;;
70213;SDS011;60138;55.808;37.078;2023-12-20T05:59:52;8.23;;;5.90;;
70213;SDS011;60138;55.808;37.078;2023-12-20T06:02:18;7.75;;;5.53;;
70213;SDS011;60138;55.808;37.078;2023-12-20T06:04:44;7.30;;;5.93;;
70213;SDS011;60138;55.808;37.078;2023-12-20T06:07:13;8.15;;;5.30;;
70213;SDS011;60138;55.808;37.078;2023-12-20T06:09:39;8.10;;;4.63;;
70213;SDS011;60138;55.808;37.078;2023-12-20T06:12:06;7.47;;;6.00;;
70213;SDS011;60138;55.808;37.078;2023-12-20T06:14:32;9.23;;;6.03;;
70213;SDS011;60138;55.808;37.078;2023-12-20T06:16:58;9.48;;;6.10;;
70213;SDS011;60138;55.808;37.078;2023-12-20T06:19:24;11.70;;;5.63;;
70213;SDS011;60138;55.808;37.078;2023-12-20T06:21:50;7.30;;;5.50;;
70213;SDS011;60138;55.808;37.078;2023-12-20T06:24:16;12.10;;;5.57;;
70213;SDS011;60138;55.808;37.078;2023-12-20T06:26:41;6.33;;;4.40;;
70213;SDS011;60138;55.808;37.078;2023-12-20T06:29:07;12.18;;;5.60;;
70213;SDS011;60138;55.808;37.078;2023-12-20T06:31:33;10.17;;;5.67;;
70213;SDS011;60138;55.808;37.078;2023-12-20T06:33:59;8.45;;;4.78;;
70213;SDS011;60138;55.808;37.078;2023-12-20T06:36:25;11.10;;;5.97;;
70213;SDS011;60138;55.808;37.078;2023-12-20T06:38:52;8.93;;;6.07;;
70213;SDS011;60138;55.808;37.078;2023-12-20T06:41:17;8.45;;;5.55;;
70213;SDS011;60138;55.808;37.078;2023-12-20T06:43:43;10.52;;;6.45;;
70213;SDS011;60138;55.808;37.078;2023-12-20T06:46:10;10.63;;;5.93;;
70213;SDS011;60138;55.808;37.078;2023-12-20T06:48:35;8.73;;;4.53;;
70213;SDS011;60138;55.808;37.078;2023-12-20T06:51:01;9.52;;;6.13;;
70213;SDS011;60138;55.808;37.078;2023-12-20T06:53:27;7.18;;;4.95;;
70213;SDS011;60138;55.808;37.078;2023-12-20T06:55:53;9.98;;;5.90;;
70213;SDS011;60138;55.808;37.078;2023-12-20T06:58:19;8.70;;;6.00;;
70213;SDS011;60138;55.808;37.078;2023-12-20T07:00:45;10.27;;;6.40;;
70213;SDS011;60138;55.808;37.078;2023-12-20T07:03:10;11.52;;;6.57;;
70213;SDS011;60138;55.808;37.078;2023-12-20T07:05:36;7.18;;;5.78;;
70213;SDS011;60138;55.808;37.078;2023-12-20T07:08:02;9.23;;;5.70;;
70213;SDS011;60138;55.808;37.078;2023-12-20T07:10:28;5.75;;;5.15;;
70213;SDS011;60138;55.808;37.078;2023-12-20T07:12:54;11.40;;;6.30;;
70213;SDS011;60138;55.808;37.078;2023-12-20T07:15:20;7.93;;;5.75;;
70213;SDS011;60138;55.808;37.078;2023-12-20T07:17:47;9.27;;;6.00;;
70213;SDS011;60138;55.808;37.078;2023-12-20T07:20:12;6.50;;;5.20;;
70213;SDS011;60138;55.808;37.078;2023-12-20T07:22:38;8.18;;;4.88;;
70213;SDS011;60138;55.808;37.078;2023-12-20T07:25:04;7.77;;;5.40;;
70213;SDS011;60138;55.808;37.078;2023-12-20T07:27:30;8.80;;;5.60;;
70213;SDS011;60138;55.808;37.078;2023-12-20T07:29:56;9.55;;;5.78;;
70213;SDS011;60138;55.808;37.078;2023-12-20T07:32:22;8.60;;;4.93;;
70213;SDS011;60138;55.808;37.078;2023-12-20T07:34:48;10.32;;;5.63;;
70213;SDS011;60138;55.808;37.078;2023-12-20T07:37:14;9.07;;;5.30;;
70213;SDS011;60138;55.808;37.078;2023-12-20T07:39:40;7.97;;;4.97;;
70213;SDS011;60138;55.808;37.078;2023-12-20T07:42:09;9.07;;;5.82;;
70213;SDS011;60138;55.808;37.078;2023-12-20T07:44:35;10.27;;;5.90;;
70213;SDS011;60138;55.808;37.078;2023-12-20T07:47:01;6.77;;;4.67;;
70213;SDS011;60138;55.808;37.078;2023-12-20T07:49:27;6.90;;;5.00;;
70213;SDS011;60138;55.808;37.078;2023-12-20T07:51:53;9.95;;;5.47;;
70213;SDS011;60138;55.808;37.078;2023-12-20T07:54:19;6.30;;;5.13;;
70213;SDS011;60138;55.808;37.078;2023-12-20T07:56:46;6.95;;;5.35;;
70213;SDS011;60138;55.808;37.078;2023-12-20T07:59:12;6.72;;;4.72;;
70213;SDS011;60138;55.808;37.078;2023-12-20T08:01:38;7.38;;;5.03;;
70213;SDS011;60138;55.808;37.078;2023-12-20T08:04:04;7.10;;;4.38;;
70213;SDS011;60138;55.808;37.078;2023-12-20T08:06:30;6.75;;;5.30;;
70213;SDS011;60138;55.808;37.078;2023-12-20T08:08:56;6.80;;;4.60;;
70213;SDS011;60138;55.808;37.078;2023-12-20T08:11:22;6.43;;;4.50;;
70213;SDS011;60138;55.808;37.078;2023-12-20T08:13:48;6.97;;;4.00;;
70213;SDS011;60138;55.808;37.078;2023-12-20T08:16:13;6.50;;;5.17;;
70213;SDS011;60138;55.808;37.078;2023-12-20T08:18:39;6.32;;;4.88;;
70213;SDS011;60138;55.808;37.078;2023-12-20T08:21:05;5.63;;;4.97;;
70213;SDS011;60138;55.808;37.078;2023-12-20T08:23:32;5.78;;;3.92;;
70213;SDS011;60138;55.808;37.078;2023-12-20T08:25:57;7.50;;;5.37;;
70213;SDS011;60138;55.808;37.078;2023-12-20T08:28:23;5.93;;;4.68;;
70213;SDS011;60138;55.808;37.078;2023-12-20T08:30:49;6.28;;;4.32;;
70213;SDS011;60138;55.808;37.078;2023-12-20T08:33:15;5.32;;;4.40;;
70213;SDS011;60138;55.808;37.078;2023-12-20T08:35:40;5.37;;;3.67;;
70213;SDS011;60138;55.808;37.078;2023-12-20T08:38:06;5.20;;;4.38;;
70213;SDS011;60138;55.808;37.078;2023-12-20T08:40:33;7.53;;;4.63;;
70213;SDS011;60138;55.808;37.078;2023-12-20T08:42:58;6.03;;;4.80;;
70213;SDS011;60138;55.808;37.078;2023-12-20T08:45:24;6.55;;;4.38;;
70213;SDS011;60138;55.808;37.078;2023-12-20T08:47:50;6.60;;;4.65;;
70213;SDS011;60138;55.808;37.078;2023-12-20T08:50:16;6.20;;;4.73;;
70213;SDS011;60138;55.808;37.078;2023-12-20T08:52:42;5.93;;;5.32;;
70213;SDS011;60138;55.808;37.078;2023-12-20T08:55:08;6.83;;;4.67;;
70213;SDS011;60138;55.808;37.078;2023-12-20T08:57:33;6.72;;;4.15;;
70213;SDS011;60138;55.808;37.078;2023-12-20T08:59:59;7.32;;;4.43;;
70213;SDS011;60138;55.808;37.078;2023-12-20T09:02:25;5.03;;;4.20;;
70213;SDS011;60138;55.808;37.078;2023-12-20T09:04:51;4.72;;;4.15;;
70213;SDS011;60138;55.808;37.078;2023-12-20T09:07:21;8.20;;;3.90;;
70213;SDS011;60138;55.808;37.078;2023-12-20T09:09:47;4.93;;;3.83;;
70213;SDS011;60138;55.808;37.078;2023-12-20T09:12:13;4.60;;;3.67;;
70213;SDS011;60138;55.808;37.078;2023-12-20T09:14:39;6.83;;;5.10;;
70213;SDS011;60138;55.808;37.078;2023-12-20T09:17:05;6.22;;;4.35;;
70213;SDS011;60138;55.808;37.078;2023-12-20T09:19:31;4.57;;;4.05;;
70213;SDS011;60138;55.808;37.078;2023-12-20T09:21:56;5.93;;;3.23;;
70213;SDS011;60138;55.808;37.078;2023-12-20T09:24:22;5.70;;;4.90;;
70213;SDS011;60138;55.808;37.078;2023-12-20T09:26:48;5.07;;;3.27;;
70213;SDS011;60138;55.808;37.078;2023-12-20T09:29:14;5.68;;;4.53;;
70213;SDS011;60138;55.808;37.078;2023-12-20T09:31:39;5.10;;;4.60;;
70213;SDS011;60138;55.808;37.078;2023-12-20T09:34:05;4.40;;;3.90;;
70213;SDS011;60138;55.808;37.078;2023-12-20T09:36:34;4.82;;;3.80;;
70213;SDS011;60138;55.808;37.078;2023-12-20T09:38:59;5.27;;;4.77;;
70213;SDS011;60138;55.808;37.078;2023-12-20T09:41:25;4.72;;;4.00;;
70213;SDS011;60138;55.808;37.078;2023-12-20T09:43:52;5.70;;;4.85;;
70213;SDS011;60138;55.808;37.078;2023-12-20T09:46:22;5.10;;;3.93;;
70213;SDS011;60138;55.808;37.078;2023-12-20T09:48:52;7.20;;;3.80;;
70213;SDS011;60138;55.808;37.078;2023-12-20T09:51:18;5.50;;;3.85;;
70213;SDS011;60138;55.808;37.078;2023-12-20T09:53:45;4.35;;;3.95;;
70213;SDS011;60138;55.808;37.078;2023-12-20T09:56:12;5.38;;;4.50;;
70213;SDS011;60138;55.808;37.078;2023-12-20T09:58:39;4.20;;;3.43;;
70213;SDS011;60138;55.808;37.078;2023-12-20T10:01:05;6.47;;;3.72;;
70213;SDS011;60138;55.808;37.078;2023-12-20T10:03:33;6.10;;;4.30;;
70213;SDS011;60138;55.808;37.078;2023-12-20T10:05:59;4.30;;;3.47;;
70213;SDS011;60138;55.808;37.078;2023-12-20T10:08:26;4.95;;;4.13;;
70213;SDS011;60138;55.808;37.078;2023-12-20T10:10:51;6.80;;;4.38;;
70213;SDS011;60138;55.808;37.078;2023-12-20T10:13:17;6.67;;;4.13;;
70213;SDS011;60138;55.808;37.078;2023-12-20T10:15:43;4.65;;;3.72;;
70213;SDS011;60138;55.808;37.078;2023-12-20T10:18:09;5.80;;;3.55;;
70213;SDS011;60138;55.808;37.078;2023-12-20T10:20:37;4.47;;;4.07;;
70213;SDS011;60138;55.808;37.078;2023-12-20T10:23:02;4.60;;;4.00;;
70213;SDS011;60138;55.808;37.078;2023-12-20T10:25:28;5.40;;;4.28;;
70213;SDS011;60138;55.808;37.078;2023-12-20T10:28:11;5.47;;;4.30;;
70213;SDS011;60138;55.808;37.078;2023-12-20T10:30:38;6.03;;;3.92;;
70213;SDS011;60138;55.808;37.078;2023-12-20T10:33:08;4.05;;;3.65;;
70213;SDS011;60138;55.808;37.078;2023-12-20T10:35:35;4.22;;;3.47;;
70213;SDS011;60138;55.808;37.078;2023-12-20T10:38:03;5.90;;;4.17;;
70213;SDS011;60138;55.808;37.078;2023-12-20T10:40:30;4.53;;;3.90;;
70213;SDS011;60138;55.808;37.078;2023-12-20T10:42:56;4.53;;;3.75;;
70213;SDS011;60138;55.808;37.078;2023-12-20T10:45:24;4.05;;;3.42;;
70213;SDS011;60138;55.808;37.078;2023-12-20T10:47:50;4.07;;;3.30;;
70213;SDS011;60138;55.808;37.078;2023-12-20T10:50:16;4.63;;;3.92;;
70213;SDS011;60138;55.808;37.078;2023-12-20T10:52:43;4.28;;;3.20;;
70213;SDS011;60138;55.808;37.078;2023-12-20T10:55:10;3.92;;;3.42;;
70213;SDS011;60138;55.808;37.078;2023-12-20T10:57:36;3.43;;;2.67;;
70213;SDS011;60138;55.808;37.078;2023-12-20T11:00:02;4.63;;;3.17;;
70213;SDS011;60138;55.808;37.078;2023-12-20T11:02:31;4.40;;;3.13;;
70213;SDS011;60138;55.808;37.078;2023-12-20T11:04:59;3.97;;;3.58;;
70213;SDS011;60138;55.808;37.078;2023-12-20T11:07:32;5.70;;;3.03;;
70213;SDS011;60138;55.808;37.078;2023-12-20T11:10:25;3.63;;;2.75;;
70213;SDS011;60138;55.808;37.078;2023-12-20T11:12:57;4.78;;;3.45;;
70213;SDS011;60138;55.808;37.078;2023-12-20T11:15:30;3.72;;;3.22;;
70213;SDS011;60138;55.808;37.078;2023-12-20T11:17:56;3.63;;;3.30;;
70213;SDS011;60138;55.808;37.078;2023-12-20T11:20:24;4.40;;;3.85;;
70213;SDS011;60138;55.808;37.078;2023-12-20T11:23:00;8.75;;;3.33;;
70213;SDS011;60138;55.808;37.078;2023-12-20T11:25:26;3.40;;;2.90;;
70213;SDS011;60138;55.808;37.078;2023-12-20T11:28:08;3.13;;;2.33;;
70213;SDS011;60138;55.808;37.078;2023-12-20T11:30:57;3.72;;;3.30;;
70213;SDS011;60138;55.808;37.078;2023-12-20T11:33:23;4.18;;;3.70;;
70213;SDS011;60138;55.808;37.078;2023-12-20T11:35:49;3.70;;;3.40;;
70213;SDS011;60138;55.808;37.078;2023-12-20T11:38:15;3.67;;;2.80;;
70213;SDS011;60138;55.808;37.078;2023-12-20T11:40:42;4.47;;;3.10;;
70213;SDS011;60138;55.808;37.078;2023-12-20T11:43:08;3.97;;;3.05;;
70213;SDS011;60138;55.808;37.078;2023-12-20T11:45:34;3.40;;;2.97;;
70213;SDS011;60138;55.808;37.078;2023-12-20T11:48:01;4.03;;;3.63;;
70213;SDS011;60138;55.808;37.078;2023-12-20T11:50:28;4.07;;;3.33;;
70213;SDS011;60138;55.808;37.078;2023-12-20T11:52:54;3.50;;;3.17;;
70213;SDS011;60138;55.808;37.078;2023-12-20T11:55:21;3.85;;;2.80;;
70213;SDS011;60138;55.808;37.078;2023-12-20T11:57:47;4.70;;;3.47;;
70213;SDS011;60138;55.808;37.078;2023-12-20T12:00:13;4.87;;;3.43;;
70213;SDS011;60138;55.808;37.078;2023-12-20T12:02:40;4.35;;;3.50;;
70213;SDS011;60138;55.808;37.078;2023-12-20T12:05:06;4.25;;;3.45;;
70213;SDS011;60138;55.808;37.078;2023-12-20T12:07:33;6.88;;;3.47;;
70213;SDS011;60138;55.808;37.078;2023-12-20T12:09:59;4.30;;;3.03;;
70213;SDS011;60138;55.808;37.078;2023-12-20T12:12:25;3.90;;;3.25;;
70213;SDS011;60138;55.808;37.078;2023-12-20T12:14:51;3.63;;;2.75;;
70213;SDS011;60138;55.808;37.078;2023-12-20T12:17:16;4.07;;;3.53;;
70213;SDS011;60138;55.808;37.078;2023-12-20T12:19:43;4.82;;;3.35;;
70213;SDS011;60138;55.808;37.078;2023-12-20T12:22:13;4.68;;;3.15;;
70213;SDS011;60138;55.808;37.078;2023-12-20T12:24:40;4.77;;;3.77;;
70213;SDS011;60138;55.808;37.078;2023-12-20T12:27:07;3.75;;;3.33;;
70213;SDS011;60138;55.808;37.078;2023-12-20T12:29:34;5.07;;;3.28;;
70213;SDS011;60138;55.808;37.078;2023-12-20T12:32:00;3.88;;;3.33;;
70213;SDS011;60138;55.808;37.078;2023-12-20T12:34:27;4.32;;;3.38;;
70213;SDS011;60138;55.808;37.078;2023-12-20T12:36:53;4.13;;;3.73;;
70213;SDS011;60138;55.808;37.078;2023-12-20T12:39:19;5.03;;;4.43;;
70213;SDS011;60138;55.808;37.078;2023-12-20T12:41:45;6.40;;;4.13;;
70213;SDS011;60138;55.808;37.078;2023-12-20T12:44:11;3.70;;;3.17;;
70213;SDS011;60138;55.808;37.078;2023-12-20T12:46:37;4.17;;;3.07;;
70213;SDS011;60138;55.808;37.078;2023-12-20T12:49:02;4.30;;;3.38;;
70213;SDS011;60138;55.808;37.078;2023-12-20T12:51:28;4.00;;;3.57;;
70213;SDS011;60138;55.808;37.078;2023-12-20T12:53:54;5.40;;;3.50;;
70213;SDS011;60138;55.808;37.078;2023-12-20T12:56:20;4.23;;;3.17;;
70213;SDS011;60138;55.808;37.078;2023-12-20T12:58:46;3.25;;;2.60;;
70213;SDS011;60138;55.808;37.078;2023-12-20T13:01:11;4.45;;;3.08;;
70213;SDS011;60138;55.808;37.078;2023-12-20T13:03:37;3.73;;;3.23;;
70213;SDS011;60138;55.808;37.078;2023-12-20T13:06:03;4.38;;;3.92;;
70213;SDS011;60138;55.808;37.078;2023-12-20T13:08:29;4.90;;;3.00;;
70213;SDS011;60138;55.808;37.078;2023-12-20T13:10:57;4.65;;;3.08;;
70213;SDS011;60138;55.808;37.078;2023-12-20T13:13:23;4.47;;;2.63;;
70213;SDS011;60138;55.808;37.078;2023-12-20T13:15:49;5.20;;;4.03;;
70213;SDS011;60138;55.808;37.078;2023-12-20T13:18:15;4.00;;;3.60;;
70213;SDS011;60138;55.808;37.078;2023-12-20T13:20:41;3.77;;;3.37;;
70213;SDS011;60138;55.808;37.078;2023-12-20T13:23:06;3.75;;;3.20;;
70213;SDS011;60138;55.808;37.078;2023-12-20T13:25:32;3.40;;;3.08;;
70213;SDS011;60138;55.808;37.078;2023-12-20T13:27:58;3.27;;;2.97;;
70213;SDS011;60138;55.808;37.078;2023-12-20T13:30:24;3.88;;;3.47;;
70213;SDS011;60138;55.808;37.078;2023-12-20T13:32:50;3.57;;;2.83;;
70213;SDS011;60138;55.808;37.078;2023-12-20T13:35:15;3.85;;;3.45;;
70213;SDS011;60138;55.808;37.078;2023-12-20T13:37:41;3.83;;;2.87;;
70213;SDS011;60138;55.808;37.078;2023-12-20T13:40:07;3.53;;;2.70;;
70213;SDS011;60138;55.808;37.078;2023-12-20T13:42:33;5.38;;;3.53;;
70213;SDS011;60138;55.808;37.078;2023-12-20T13:44:59;4.33;;;3.50;;
70213;SDS011;60138;55.808;37.078;2023-12-20T13:47:25;6.13;;;4.22;;
70213;SDS011;60138;55.808;37.078;2023-12-20T13:49:50;3.33;;;3.00;;
70213;SDS011;60138;55.808;37.078;2023-12-20T13:52:16;3.97;;;3.30;;
70213;SDS011;60138;55.808;37.078;2023-12-20T13:54:42;4.57;;;3.87;;
70213;SDS011;60138;55.808;37.078;2023-12-20T13:57:08;4.95;;;3.38;;
70213;SDS011;60138;55.808;37.078;2023-12-20T13:59:34;4.23;;;3.27;;
70213;SDS011;60138;55.808;37.078;2023-12-20T14:01:59;4.63;;;3.58;;
70213;SDS011;60138;55.808;37.078;2023-12-20T14:04:25;5.55;;;3.72;;
70213;SDS011;60138;55.808;37.078;2023-12-20T14:06:51;5.97;;;5.37;;
70213;SDS011;60138;55.808;37.078;2023-12-20T14:09:17;5.50;;;4.47;;
70213;SDS011;60138;55.808;37.078;2023-12-20T14:11:43;4.93;;;4.43;;
70213;SDS011;60138;55.808;37.078;2023-12-20T14:14:09;4.47;;;3.60;;
70213;SDS011;60138;55.808;37.078;2023-12-20T14:16:34;3.80;;;3.20;;
70213;SDS011;60138;55.808;37.078;2023-12-20T14:19:01;6.22;;;3.90;;
70213;SDS011;60138;55.808;37.078;2023-12-20T14:21:26;5.80;;;3.83;;
70213;SDS011;60138;55.808;37.078;2023-12-20T14:23:52;4.97;;;3.83;;
70213;SDS011;60138;55.808;37.078;2023-12-20T14:26:18;6.28;;;3.47;;
70213;SDS011;60138;55.808;37.078;2023-12-20T14:28:44;4.53;;;3.93;;